Ingenio La Esperanza, Argentina
Current Conditions -  °F | °C
As of 10:00 PM on Tuesday 25 Nov 2014 (Local Time) from SASJ Reporting Station
Overcast Overcast  
Wind Chill: 68°   Ceiling: 3000
Heat Index: 68°   Visibility: 6mi
Dew Point: 64°   Wind: 7mph
Humidity: 88%   Direction: 320°NW
Pressure: 29.94"   Gusts: NA
Location:  24.22°S, 64.85°W
Report Text: SASJ 260100Z 32006KT 9999 FEW015 OVC03020/18 Q1014
Loading
Personal Weather Stations






























Interactive Weather Map New forecast layout! Learn more

10-Day Weather Forecast

Advertisements
Track Severe Weather on mobile